createdAt,value
2018-03-27T00:02:15.776Z,13.10
2018-03-27T00:04:43.847Z,13.60
2018-03-27T00:07:11.052Z,13.87
2018-03-27T00:09:39.166Z,14.37
2018-03-27T00:12:05.657Z,14.13
2018-03-27T00:14:32.585Z,14.00
2018-03-27T00:17:01.029Z,13.20
2018-03-27T00:19:27.543Z,13.17
2018-03-27T00:21:54.480Z,13.40
2018-03-27T00:24:21.469Z,13.70
2018-03-27T00:26:59.803Z,14.40
2018-03-27T00:29:38.495Z,13.50
2018-03-27T00:32:17.197Z,16.00
2018-03-27T00:34:56.219Z,13.90
2018-03-27T00:37:35.303Z,14.80
2018-03-27T00:40:14.840Z,13.67
2018-03-27T00:45:37.718Z,13.67
2018-03-27T00:48:05.115Z,13.57
2018-03-27T00:50:31.651Z,14.93
2018-03-27T00:52:58.369Z,13.73
2018-03-27T00:55:24.888Z,12.37
2018-03-27T00:57:51.411Z,13.30
2018-03-27T01:00:19.135Z,15.57
2018-03-27T01:02:45.986Z,16.10
2018-03-27T01:05:12.811Z,15.47
2018-03-27T01:07:40.919Z,15.93
2018-03-27T01:10:07.755Z,13.20
2018-03-27T01:12:34.225Z,14.80
2018-03-27T01:15:00.692Z,14.83
2018-03-27T01:17:27.317Z,13.83
2018-03-27T01:19:54.174Z,15.40
2018-03-27T01:22:21.049Z,14.53
2018-03-27T01:24:47.440Z,14.27
2018-03-27T01:27:13.872Z,16.13
2018-03-27T01:29:41.815Z,16.43
2018-03-27T01:32:09.354Z,16.20
2018-03-27T01:34:36.960Z,16.07
2018-03-27T01:37:03.906Z,15.23
2018-03-27T01:39:30.465Z,15.83
2018-03-27T01:41:57.767Z,15.93
2018-03-27T01:44:25.090Z,15.50
2018-03-27T01:46:51.662Z,15.73
2018-03-27T01:49:18.578Z,17.23
2018-03-27T01:51:45.915Z,16.93
2018-03-27T01:54:12.355Z,15.33
2018-03-27T01:56:39.234Z,16.13
2018-03-27T01:59:06.865Z,17.53
2018-03-27T02:01:33.392Z,18.00
2018-03-27T02:04:01.537Z,17.93
2018-03-27T02:06:28.449Z,18.43
2018-03-27T02:08:56.063Z,17.87
2018-03-27T02:11:29.339Z,19.77
2018-03-27T02:14:01.839Z,19.80
2018-03-27T02:16:35.341Z,20.50
2018-03-27T02:19:09.124Z,19.17
2018-03-27T02:21:36.068Z,20.87
2018-03-27T02:24:17.503Z,20.50
2018-03-27T02:26:44.490Z,20.47
2018-03-27T02:29:11.418Z,21.27
2018-03-27T02:31:39.880Z,21.40
2018-03-27T02:34:06.534Z,20.00
2018-03-27T02:36:33.347Z,20.83
2018-03-27T02:39:00.042Z,22.40
2018-03-27T02:41:26.940Z,22.63
2018-03-27T02:43:54.736Z,22.03
2018-03-27T02:46:22.155Z,20.60
2018-03-27T02:48:48.691Z,20.83
2018-03-27T02:51:15.952Z,21.73
2018-03-27T02:53:42.597Z,18.27
2018-03-27T02:56:10.782Z,19.57
2018-03-27T02:58:38.743Z,18.47
2018-03-27T03:01:06.924Z,17.83
2018-03-27T03:03:33.604Z,18.50
2018-03-27T03:06:00.309Z,18.30
2018-03-27T03:08:26.771Z,18.00
2018-03-27T03:10:53.296Z,15.57
2018-03-27T03:13:19.800Z,17.70
2018-03-27T03:15:46.268Z,17.40
2018-03-27T03:18:14.415Z,17.60
2018-03-27T03:20:40.905Z,18.10
2018-03-27T03:23:07.384Z,16.83
2018-03-27T03:25:34.108Z,19.03
2018-03-27T03:28:00.548Z,20.33
2018-03-27T03:30:28.967Z,20.80
2018-03-27T03:32:56.153Z,19.60
2018-03-27T03:35:23.399Z,17.47
2018-03-27T03:37:49.947Z,19.60
2018-03-27T03:40:16.775Z,20.67
2018-03-27T03:42:44.366Z,17.60
2018-03-27T03:48:08.270Z,14.80
2018-03-27T03:50:35.518Z,17.27
2018-03-27T03:53:02.029Z,16.63
2018-03-27T03:55:29.133Z,16.73
2018-03-27T03:57:55.624Z,16.37
2018-03-27T04:00:22.941Z,15.13
2018-03-27T04:02:50.517Z,17.17
2018-03-27T04:05:17.740Z,16.47
2018-03-27T04:07:45.838Z,16.50
2018-03-27T04:10:12.371Z,16.93
2018-03-27T04:12:38.832Z,15.60
2018-03-27T04:15:06.028Z,15.70
2018-03-27T04:17:33.343Z,17.27
2018-03-27T04:20:02.476Z,19.47
2018-03-27T04:22:30.162Z,20.40
2018-03-27T04:24:56.935Z,17.80
2018-03-27T04:27:23.755Z,16.57
2018-03-27T04:29:50.789Z,18.00
2018-03-27T04:32:17.400Z,20.27
2018-03-27T04:34:43.945Z,20.17
2018-03-27T04:37:11.832Z,19.83
2018-03-27T04:39:39.037Z,22.90
2018-03-27T04:42:05.576Z,21.20
2018-03-27T04:44:32.138Z,22.27
2018-03-27T04:46:58.664Z,20.20
2018-03-27T04:49:26.890Z,18.93
2018-03-27T04:51:54.993Z,20.00
2018-03-27T04:54:21.616Z,13.87
2018-03-27T04:56:49.892Z,17.70
2018-03-27T04:59:16.438Z,20.50
2018-03-27T05:01:43.695Z,18.87
2018-03-27T05:04:11.322Z,19.63
2018-03-27T05:06:39.581Z,18.50
2018-03-27T05:09:06.329Z,21.30
2018-03-27T05:11:34.243Z,19.13
2018-03-27T05:14:00.654Z,20.27
2018-03-27T05:16:27.102Z,18.57
2018-03-27T05:18:54.352Z,20.27
2018-03-27T05:21:20.813Z,19.87
2018-03-27T05:23:48.597Z,18.40
2018-03-27T05:26:15.130Z,17.47
2018-03-27T05:28:43.186Z,19.37
2018-03-27T05:31:10.915Z,18.97
2018-03-27T05:33:38.728Z,21.03
2018-03-27T05:36:05.556Z,21.90
2018-03-27T05:38:32.131Z,20.47
2018-03-27T05:40:58.607Z,20.33
2018-03-27T05:43:25.023Z,19.97
2018-03-27T05:45:53.350Z,22.67
2018-03-27T05:48:19.888Z,20.07
2018-03-27T05:50:46.685Z,23.07
2018-03-27T05:53:14.128Z,22.90
2018-03-27T05:55:40.954Z,23.97
2018-03-27T05:58:08.895Z,21.30
2018-03-27T06:00:37.071Z,22.03
2018-03-27T06:03:03.870Z,23.47
2018-03-27T06:05:30.747Z,22.00
2018-03-27T06:07:57.282Z,21.63
2018-03-27T06:10:24.557Z,23.23
2018-03-27T06:12:51.906Z,19.93
2018-03-27T06:15:19.084Z,22.30
2018-03-27T06:17:45.582Z,18.70
2018-03-27T06:20:12.158Z,20.73
2018-03-27T06:22:39.442Z,19.03
2018-03-27T06:25:06.480Z,17.97
2018-03-27T06:27:34.718Z,16.67
2018-03-27T06:30:01.536Z,15.93
2018-03-27T06:32:29.074Z,14.93
2018-03-27T06:34:55.570Z,15.90
2018-03-27T06:37:23.195Z,14.43
2018-03-27T06:39:49.692Z,15.33
2018-03-27T06:42:16.224Z,14.90
2018-03-27T06:44:43.349Z,14.53
2018-03-27T06:47:10.188Z,14.27
2018-03-27T06:49:37.517Z,16.43
2018-03-27T06:52:04.758Z,15.10
2018-03-27T06:54:31.972Z,13.93
2018-03-27T06:56:59.007Z,14.03
2018-03-27T06:59:26.232Z,15.73
2018-03-27T07:01:53.441Z,15.10
2018-03-27T07:04:20.338Z,16.77
2018-03-27T07:06:48.595Z,13.30
2018-03-27T07:09:15.190Z,15.90
2018-03-27T07:11:42.616Z,14.27
2018-03-27T07:14:10.461Z,15.80
2018-03-27T07:16:38.041Z,12.07
2018-03-27T07:19:05.789Z,14.03
2018-03-27T07:21:32.421Z,15.40
2018-03-27T07:24:00.282Z,11.10
2018-03-27T07:26:27.334Z,37.57
2018-03-27T07:28:56.798Z,14.47
2018-03-27T07:31:24.561Z,15.13
2018-03-27T07:33:51.974Z,12.30
2018-03-27T07:36:21.202Z,11.43
2018-03-27T07:38:48.814Z,14.30
2018-03-27T07:41:18.039Z,12.47
2018-03-27T07:43:44.573Z,10.67
2018-03-27T07:46:11.479Z,10.23
2018-03-27T07:48:39.653Z,11.00
2018-03-27T07:51:07.926Z,11.00
2018-03-27T07:53:36.061Z,11.03
2018-03-27T07:56:04.254Z,10.73
2018-03-27T07:58:32.618Z,11.80
2018-03-27T08:01:00.736Z,11.43
2018-03-27T08:03:28.904Z,10.33
2018-03-27T08:05:56.487Z,12.00
2018-03-27T08:08:22.946Z,13.00
2018-03-27T08:10:49.469Z,12.83
2018-03-27T08:13:15.930Z,13.00
2018-03-27T08:15:42.405Z,11.30
2018-03-27T08:18:08.926Z,10.67
2018-03-27T08:20:37.052Z,10.33
2018-03-27T08:23:04.733Z,9.20
2018-03-27T08:25:31.177Z,9.23
2018-03-27T08:27:57.713Z,8.83
2018-03-27T08:30:24.179Z,8.60
2018-03-27T08:32:52.043Z,7.37
2018-03-27T08:35:18.540Z,8.60
2018-03-27T08:37:46.782Z,9.40
2018-03-27T08:40:13.230Z,7.97
2018-03-27T08:42:41.184Z,8.37
2018-03-27T08:45:07.720Z,9.03
2018-03-27T08:47:34.601Z,8.73
2018-03-27T08:50:01.175Z,9.43
2018-03-27T08:52:28.826Z,9.20
2018-03-27T08:54:55.242Z,9.00
2018-03-27T08:57:21.810Z,10.47
2018-03-27T08:59:49.435Z,10.40
2018-03-27T09:02:15.920Z,8.37
2018-03-27T09:04:44.069Z,9.57
2018-03-27T09:07:12.164Z,10.27
2018-03-27T09:09:39.695Z,8.83
2018-03-27T09:12:07.265Z,7.40
2018-03-27T09:14:35.414Z,7.13
2018-03-27T09:17:03.511Z,9.20
2018-03-27T09:19:31.610Z,9.20
2018-03-27T09:21:58.461Z,11.53
2018-03-27T09:24:25.723Z,8.70
2018-03-27T09:26:52.541Z,9.60
2018-03-27T09:29:21.170Z,9.70
2018-03-27T09:31:48.318Z,8.90
2018-03-27T09:34:16.512Z,9.50
2018-03-27T09:36:43.027Z,7.90
2018-03-27T09:39:09.528Z,9.00
2018-03-27T09:41:38.886Z,9.30
2018-03-27T09:44:05.856Z,10.47
2018-03-27T09:46:33.981Z,8.90
2018-03-27T09:49:02.476Z,9.03
2018-03-27T09:51:30.807Z,8.30
2018-03-27T09:53:58.879Z,9.17
2018-03-27T09:56:27.053Z,8.63
2018-03-27T09:58:55.327Z,10.33
2018-03-27T10:01:27.646Z,9.60
2018-03-27T10:03:54.242Z,9.07
2018-03-27T10:06:20.823Z,9.30
2018-03-27T10:08:48.376Z,10.50
2018-03-27T10:11:15.683Z,8.27
2018-03-27T10:13:42.235Z,9.47
2018-03-27T10:16:10.400Z,8.30
2018-03-27T10:18:36.820Z,7.20
2018-03-27T10:21:03.443Z,8.33
2018-03-27T10:23:31.100Z,7.10
2018-03-27T10:25:58.680Z,7.93
2018-03-27T10:28:25.216Z,7.40
2018-03-27T10:30:53.721Z,7.50
2018-03-27T10:33:21.872Z,7.07
2018-03-27T10:35:48.389Z,7.60
2018-03-27T10:38:14.922Z,7.10
2018-03-27T10:40:43.055Z,9.23
2018-03-27T10:43:11.184Z,8.77
2018-03-27T10:45:39.301Z,7.30
2018-03-27T10:48:05.689Z,7.90
2018-03-27T10:50:32.226Z,9.70
2018-03-27T10:52:58.570Z,8.60
2018-03-27T10:55:25.396Z,8.60
2018-03-27T10:57:52.331Z,9.90
2018-03-27T11:00:21.729Z,10.00
2018-03-27T11:02:48.594Z,9.53
2018-03-27T11:05:17.464Z,8.63
2018-03-27T11:07:45.077Z,8.60
2018-03-27T11:10:13.371Z,9.63
2018-03-27T11:12:39.837Z,9.60
2018-03-27T11:15:07.008Z,9.93
2018-03-27T11:17:33.581Z,8.50
2018-03-27T11:20:01.840Z,8.93
2018-03-27T11:22:28.735Z,7.83
2018-03-27T11:24:56.069Z,7.77
2018-03-27T11:27:23.346Z,7.23
2018-03-27T11:29:51.136Z,8.00
2018-03-27T11:32:17.715Z,6.70
2018-03-27T11:34:44.252Z,7.87
2018-03-27T11:37:12.506Z,6.67
2018-03-27T11:39:39.099Z,7.53
2018-03-27T11:42:06.554Z,8.43
2018-03-27T11:44:34.445Z,7.67
2018-03-27T11:47:03.949Z,7.20
2018-03-27T11:49:32.150Z,7.30
2018-03-27T11:51:58.713Z,6.60
2018-03-27T11:54:25.188Z,6.23
2018-03-27T11:56:52.641Z,6.10
2018-03-27T11:59:19.928Z,7.70
2018-03-27T12:01:47.750Z,5.90
2018-03-27T12:04:14.771Z,4.90
2018-03-27T12:06:46.861Z,5.20
2018-03-27T12:09:14.979Z,3.77
2018-03-27T12:11:41.934Z,4.90
2018-03-27T12:14:08.419Z,5.40
2018-03-27T12:16:36.622Z,3.87
2018-03-27T12:19:04.594Z,4.50
2018-03-27T12:21:32.848Z,3.70
2018-03-27T12:24:00.730Z,2.97
2018-03-27T12:26:29.088Z,2.80
2018-03-27T12:28:56.546Z,4.60
2018-03-27T12:31:24.098Z,3.63
2018-03-27T12:33:50.636Z,3.50
2018-03-27T12:36:19.749Z,3.17
2018-03-27T12:38:46.238Z,3.40
2018-03-27T12:41:13.941Z,3.20
2018-03-27T12:43:43.714Z,4.40
2018-03-27T12:46:11.013Z,4.73
2018-03-27T12:48:39.940Z,3.33
2018-03-27T12:51:06.558Z,3.73
2018-03-27T12:53:35.281Z,4.47
2018-03-27T12:56:03.414Z,4.20
2018-03-27T12:58:33.098Z,37.87
2018-03-27T13:01:02.834Z,4.57
2018-03-27T13:03:31.069Z,4.40
2018-03-27T13:05:58.292Z,3.53
2018-03-27T13:08:25.301Z,3.63
2018-03-27T13:10:52.217Z,2.83
2018-03-27T13:13:18.648Z,3.77
2018-03-27T13:15:47.095Z,3.20
2018-03-27T13:18:15.278Z,3.23
2018-03-27T13:20:42.607Z,3.40
2018-03-27T13:23:11.183Z,2.60
2018-03-27T13:25:38.643Z,3.80
2018-03-27T13:28:06.951Z,3.30
2018-03-27T13:30:36.801Z,3.73
2018-03-27T13:33:05.050Z,4.27
2018-03-27T13:35:33.282Z,3.90
2018-03-27T13:37:59.926Z,3.60
2018-03-27T13:40:27.958Z,3.60
2018-03-27T13:42:56.461Z,3.93
2018-03-27T13:45:23.525Z,2.80
2018-03-27T13:47:50.223Z,3.37
2018-03-27T13:50:18.520Z,3.03
2018-03-27T13:52:46.882Z,3.60
2018-03-27T13:55:13.760Z,2.80
2018-03-27T13:57:41.334Z,3.30
2018-03-27T14:00:09.791Z,3.00
2018-03-27T14:02:37.090Z,2.20
2018-03-27T14:05:04.833Z,2.87
2018-03-27T14:07:37.436Z,3.00
2018-03-27T14:10:08.343Z,2.53
2018-03-27T14:23:14.012Z,3.20
2018-03-27T14:25:42.275Z,2.37
2018-03-27T14:28:10.670Z,2.93
2018-03-27T14:30:40.499Z,2.50
2018-03-27T14:33:15.447Z,2.40
2018-03-27T14:35:43.197Z,2.40
2018-03-27T14:38:15.999Z,2.37
2018-03-27T14:40:45.181Z,2.30
2018-03-27T14:43:14.002Z,2.67
2018-03-27T14:45:42.425Z,5.87
2018-03-27T14:50:47.178Z,4.00
2018-03-27T14:53:15.718Z,5.33
2018-03-27T14:55:43.971Z,4.10
2018-03-27T14:58:10.589Z,3.87
2018-03-27T15:00:39.845Z,5.60
2018-03-27T15:03:06.642Z,6.70
2018-03-27T15:05:33.925Z,7.10
2018-03-27T15:08:06.419Z,6.80
2018-03-27T15:10:35.655Z,7.40
2018-03-27T15:13:03.978Z,6.30
2018-03-27T15:15:32.319Z,7.00
2018-03-27T15:18:00.518Z,7.63
2018-03-27T15:20:29.286Z,8.40
2018-03-27T15:22:59.182Z,8.80
2018-03-27T15:25:28.889Z,9.20
2018-03-27T16:54:58.683Z,12.23
2018-03-27T16:57:27.330Z,10.23
2018-03-27T16:59:56.256Z,9.80
2018-03-27T17:02:24.512Z,10.30
2018-03-27T17:04:50.995Z,10.90
2018-03-27T17:07:17.833Z,11.67
2018-03-27T17:09:45.304Z,11.70
2018-03-27T17:12:13.575Z,10.63
2018-03-27T17:14:41.628Z,9.90
2018-03-27T17:17:09.151Z,10.47
2018-03-27T17:19:36.044Z,10.20
2018-03-27T17:22:04.215Z,10.93
2018-03-27T17:24:30.941Z,10.97
2018-03-27T17:26:59.096Z,10.63
2018-03-27T17:29:26.396Z,12.73
2018-03-27T17:31:53.300Z,11.97
2018-03-27T17:34:22.333Z,11.13
2018-03-27T17:36:50.004Z,10.90
2018-03-27T17:39:17.967Z,11.13
2018-03-27T17:41:44.639Z,11.77
2018-03-27T17:44:11.364Z,11.30
2018-03-27T17:46:38.595Z,10.73
2018-03-27T17:49:05.583Z,9.73
2018-03-27T17:51:32.136Z,10.73
2018-03-27T17:53:59.187Z,10.00
2018-03-27T17:56:26.109Z,10.70
2018-03-27T17:58:52.600Z,10.43
2018-03-27T18:01:19.076Z,11.07
2018-03-27T18:03:45.887Z,9.23
2018-03-27T18:06:15.049Z,8.20
2018-03-27T18:11:38.969Z,8.30
2018-03-27T18:16:44.472Z,7.43
2018-03-27T18:19:13.167Z,8.00
2018-03-27T18:21:41.794Z,7.90
2018-03-27T18:24:10.128Z,7.40
2018-03-27T18:26:36.703Z,7.63
2018-03-27T18:29:05.140Z,7.60
2018-03-27T18:31:32.731Z,7.17
2018-03-27T18:34:01.365Z,7.63
2018-03-27T18:36:28.566Z,8.33
2018-03-27T18:38:55.301Z,7.77
2018-03-27T18:41:22.509Z,7.87
2018-03-27T18:43:49.051Z,7.23
2018-03-27T18:46:16.391Z,7.17
2018-03-27T18:48:44.825Z,8.43
2018-03-27T18:51:11.359Z,8.83
2018-03-27T18:56:11.990Z,7.80
2018-03-27T18:58:42.916Z,8.47
2018-03-27T19:01:10.839Z,8.90
2018-03-27T19:03:38.070Z,7.60
2018-03-27T19:06:05.947Z,8.70
2018-03-27T19:08:32.584Z,7.63
2018-03-27T19:10:59.947Z,8.43
2018-03-27T19:13:26.659Z,8.83
2018-03-27T19:15:53.227Z,9.17
2018-03-27T19:18:19.854Z,11.00
2018-03-27T19:20:48.376Z,10.30
2018-03-27T19:23:18.042Z,9.67
2018-03-27T19:25:47.256Z,9.33
2018-03-27T19:28:15.494Z,10.60
2018-03-27T19:30:44.701Z,11.23
2018-03-27T19:33:12.918Z,10.07
2018-03-27T19:35:40.778Z,11.80
2018-03-27T19:38:07.564Z,12.37
2018-03-27T19:40:38.950Z,11.67
2018-03-27T19:43:05.561Z,12.33
2018-03-27T19:45:33.348Z,11.57
2018-03-27T19:48:00.719Z,13.20
2018-03-27T19:50:28.452Z,12.83
2018-03-27T19:52:55.945Z,10.90
2018-03-27T19:55:22.635Z,10.20
2018-03-27T19:57:50.292Z,10.13
2018-03-27T20:00:16.824Z,9.20
2018-03-27T20:02:43.396Z,8.47
2018-03-27T20:05:17.504Z,8.80
2018-03-27T20:07:47.460Z,8.23
2018-03-27T20:10:14.204Z,8.10
2018-03-27T20:12:43.784Z,8.60
2018-03-27T20:20:20.641Z,9.20
2018-03-27T20:22:48.784Z,10.07
2018-03-27T20:25:15.311Z,8.97
2018-03-27T20:27:42.224Z,8.63
2018-03-27T20:30:08.987Z,9.40
2018-03-27T20:32:35.736Z,9.87
2018-03-27T20:35:08.021Z,10.77
2018-03-27T20:37:37.096Z,9.67
2018-03-27T20:40:04.540Z,11.00
2018-03-27T20:42:32.136Z,9.43
2018-03-27T20:44:58.694Z,9.13
2018-03-27T20:47:25.280Z,10.50
2018-03-27T20:49:52.224Z,9.20
2018-03-27T20:52:20.826Z,9.70
2018-03-27T20:54:47.716Z,10.57
2018-03-27T20:57:16.076Z,9.30
2018-03-27T20:59:44.075Z,9.60
2018-03-27T21:02:10.712Z,9.60
2018-03-27T21:04:38.464Z,9.87
2018-03-27T21:07:06.720Z,9.37
2018-03-27T21:09:33.350Z,10.00
2018-03-27T21:12:02.140Z,9.43
2018-03-27T21:14:28.769Z,10.73
2018-03-27T21:16:56.303Z,9.13
2018-03-27T21:19:22.757Z,9.80
2018-03-27T21:21:50.414Z,8.40
2018-03-27T21:24:17.067Z,10.43
2018-03-27T21:26:44.058Z,9.30
2018-03-27T21:29:11.724Z,10.60
2018-03-27T21:31:38.840Z,10.27
2018-03-27T21:34:06.532Z,9.80
2018-03-27T21:36:32.998Z,10.30
2018-03-27T21:38:59.429Z,9.73
2018-03-27T21:41:27.916Z,9.80
2018-03-27T21:43:54.912Z,10.43
2018-03-27T21:46:22.133Z,8.77
2018-03-27T21:48:49.469Z,9.60
2018-03-27T21:51:16.764Z,9.00
2018-03-27T21:53:43.506Z,8.77
2018-03-27T21:56:10.003Z,10.00
2018-03-27T21:58:38.071Z,10.50
2018-03-27T22:01:04.854Z,10.07
2018-03-27T22:03:38.992Z,10.17
2018-03-27T22:06:06.642Z,10.37
2018-03-27T22:08:34.323Z,10.30
2018-03-27T22:11:00.893Z,10.00
2018-03-27T22:13:29.884Z,9.43
2018-03-27T22:15:56.392Z,10.37
2018-03-27T22:18:23.580Z,8.63
2018-03-27T22:20:50.951Z,9.30
2018-03-27T22:23:17.491Z,10.77
2018-03-27T22:25:44.269Z,8.80
2018-03-27T22:28:10.905Z,9.97
2018-03-27T22:30:37.871Z,8.90
2018-03-27T22:33:04.762Z,9.87
2018-03-27T22:35:32.904Z,9.70
2018-03-27T22:37:59.886Z,8.80
2018-03-27T22:40:27.005Z,9.67
2018-03-27T22:42:53.506Z,9.17
2018-03-27T22:45:21.074Z,10.00
2018-03-27T22:47:47.658Z,8.53
2018-03-27T22:50:14.392Z,8.97
2018-03-27T22:52:41.012Z,9.70
2018-03-27T22:55:07.868Z,9.00
2018-03-27T22:57:34.885Z,8.67
2018-03-27T23:00:01.966Z,8.10
2018-03-27T23:02:29.581Z,8.77
2018-03-27T23:04:56.132Z,9.63
2018-03-27T23:07:22.640Z,9.13
2018-03-27T23:09:49.704Z,8.60
2018-03-27T23:12:16.462Z,8.13
2018-03-27T23:14:43.436Z,9.17
2018-03-27T23:17:10.270Z,9.57
2018-03-27T23:19:37.125Z,9.07
2018-03-27T23:22:04.004Z,8.37
2018-03-27T23:24:30.979Z,10.00
2018-03-27T23:26:59.454Z,9.80
2018-03-27T23:29:27.641Z,9.40
2018-03-27T23:31:55.285Z,10.23
2018-03-27T23:34:23.564Z,9.37
2018-03-27T23:36:50.866Z,10.50
2018-03-27T23:39:18.061Z,8.67
2018-03-27T23:41:44.520Z,9.07
2018-03-27T23:44:11.368Z,9.30
2018-03-27T23:46:39.501Z,8.87
2018-03-27T23:49:07.628Z,9.07
2018-03-27T23:51:34.038Z,9.43
2018-03-27T23:54:02.120Z,8.30
2018-03-27T23:56:29.330Z,9.67
2018-03-27T23:58:56.794Z,9.57
